sensor_id;sensor_type;location;lat;lon;timestamp;temperature;humidity
20041;DHT22;10181;48.072;9.884;2023-11-18T00:00:52;3.80;99.90
20041;DHT22;10181;48.072;9.884;2023-11-18T00:03:20;3.80;99.90
20041;DHT22;10181;48.072;9.884;2023-11-18T00:05:46;3.80;99.90
20041;DHT22;10181;48.072;9.884;2023-11-18T00:08:12;3.70;99.90
20041;DHT22;10181;48.072;9.884;2023-11-18T00:10:37;3.70;99.90
20041;DHT22;10181;48.072;9.884;2023-11-18T00:13:03;3.60;99.90
20041;DHT22;10181;48.072;9.884;2023-11-18T00:15:29;3.60;99.90
20041;DHT22;10181;48.072;9.884;2023-11-18T00:17:55;3.60;99.90
20041;DHT22;10181;48.072;9.884;2023-11-18T00:20:20;3.60;99.90
20041;DHT22;10181;48.072;9.884;2023-11-18T00:22:49;3.60;99.90
20041;DHT22;10181;48.072;9.884;2023-11-18T00:25:16;3.60;99.90
20041;DHT22;10181;48.072;9.884;2023-11-18T00:27:42;3.60;99.90
20041;DHT22;10181;48.072;9.884;2023-11-18T00:30:09;3.60;99.90
20041;DHT22;10181;48.072;9.884;2023-11-18T00:32:36;3.60;99.90
20041;DHT22;10181;48.072;9.884;2023-11-18T00:35:02;3.60;99.90
20041;DHT22;10181;48.072;9.884;2023-11-18T00:37:30;3.60;99.90
20041;DHT22;10181;48.072;9.884;2023-11-18T00:39:56;3.70;99.90
20041;DHT22;10181;48.072;9.884;2023-11-18T00:42:22;3.70;99.90
20041;DHT22;10181;48.072;9.884;2023-11-18T00:44:48;3.70;99.90
20041;DHT22;10181;48.072;9.884;2023-11-18T00:47:13;3.70;99.90
20041;DHT22;10181;48.072;9.884;2023-11-18T00:49:39;3.70;99.90
20041;DHT22;10181;48.072;9.884;2023-11-18T00:52:05;3.70;99.90
20041;DHT22;10181;48.072;9.884;2023-11-18T00:54:31;3.80;99.90
20041;DHT22;10181;48.072;9.884;2023-11-18T00:56:57;3.80;99.90
20041;DHT22;10181;48.072;9.884;2023-11-18T00:59:23;3.80;99.90
20041;DHT22;10181;48.072;9.884;2023-11-18T01:01:48;3.70;99.90
20041;DHT22;10181;48.072;9.884;2023-11-18T01:04:15;3.70;99.90
20041;DHT22;10181;48.072;9.884;2023-11-18T01:06:42;3.70;99.90
20041;DHT22;10181;48.072;9.884;2023-11-18T01:09:08;3.60;99.90
20041;DHT22;10181;48.072;9.884;2023-11-18T01:11:35;3.60;99.90
20041;DHT22;10181;48.072;9.884;2023-11-18T01:14:01;3.50;99.90
20041;DHT22;10181;48.072;9.884;2023-11-18T01:16:27;3.40;99.90
20041;DHT22;10181;48.072;9.884;2023-11-18T01:18:54;3.30;99.90
20041;DHT22;10181;48.072;9.884;2023-11-18T01:21:20;3.30;99.90
20041;DHT22;10181;48.072;9.884;2023-11-18T01:23:45;3.30;99.90
20041;DHT22;10181;48.072;9.884;2023-11-18T01:26:12;3.30;99.90
20041;DHT22;10181;48.072;9.884;2023-11-18T01:28:41;3.20;99.90
20041;DHT22;10181;48.072;9.884;2023-11-18T01:31:09;3.20;99.90
20041;DHT22;10181;48.072;9.884;2023-11-18T01:33:39;3.20;99.90
20041;DHT22;10181;48.072;9.884;2023-11-18T01:36:10;3.20;99.90
20041;DHT22;10181;48.072;9.884;2023-11-18T01:38:36;3.30;99.90
20041;DHT22;10181;48.072;9.884;2023-11-18T01:41:06;3.30;99.90
20041;DHT22;10181;48.072;9.884;2023-11-18T01:43:32;3.30;99.90
20041;DHT22;10181;48.072;9.884;2023-11-18T01:45:59;3.40;99.90
20041;DHT22;10181;48.072;9.884;2023-11-18T01:48:28;3.40;99.90
20041;DHT22;10181;48.072;9.884;2023-11-18T01:50:56;3.40;99.90
20041;DHT22;10181;48.072;9.884;2023-11-18T01:53:23;3.40;99.90
20041;DHT22;10181;48.072;9.884;2023-11-18T01:55:49;3.40;99.90
20041;DHT22;10181;48.072;9.884;2023-11-18T01:58:16;3.50;99.90
20041;DHT22;10181;48.072;9.884;2023-11-18T02:00:45;3.50;99.90
20041;DHT22;10181;48.072;9.884;2023-11-18T02:03:12;3.50;99.90
20041;DHT22;10181;48.072;9.884;2023-11-18T02:05:38;3.50;99.90
20041;DHT22;10181;48.072;9.884;2023-11-18T02:08:04;3.50;99.90
20041;DHT22;10181;48.072;9.884;2023-11-18T02:10:35;3.50;99.90
20041;DHT22;10181;48.072;9.884;2023-11-18T02:13:12;3.60;99.90
20041;DHT22;10181;48.072;9.884;2023-11-18T02:15:39;3.60;99.90
20041;DHT22;10181;48.072;9.884;2023-11-18T02:18:07;3.60;99.90
20041;DHT22;10181;48.072;9.884;2023-11-18T02:20:38;3.60;99.90
20041;DHT22;10181;48.072;9.884;2023-11-18T02:23:04;3.60;99.90
20041;DHT22;10181;48.072;9.884;2023-11-18T02:25:33;3.60;99.90
20041;DHT22;10181;48.072;9.884;2023-11-18T02:27:59;3.60;99.90
20041;DHT22;10181;48.072;9.884;2023-11-18T02:30:26;3.60;99.90
20041;DHT22;10181;48.072;9.884;2023-11-18T02:33:03;3.70;99.90
20041;DHT22;10181;48.072;9.884;2023-11-18T02:35:36;3.70;99.90
20041;DHT22;10181;48.072;9.884;2023-11-18T02:38:04;3.70;99.90
20041;DHT22;10181;48.072;9.884;2023-11-18T02:40:35;3.80;99.90
20041;DHT22;10181;48.072;9.884;2023-11-18T02:43:04;3.70;99.90
20041;DHT22;10181;48.072;9.884;2023-11-18T02:45:35;3.70;99.90
20041;DHT22;10181;48.072;9.884;2023-11-18T02:48:02;3.80;99.90
20041;DHT22;10181;48.072;9.884;2023-11-18T02:50:28;3.70;99.90
20041;DHT22;10181;48.072;9.884;2023-11-18T02:52:54;3.70;99.90
20041;DHT22;10181;48.072;9.884;2023-11-18T02:55:20;3.70;99.90
20041;DHT22;10181;48.072;9.884;2023-11-18T02:57:48;3.70;99.90
20041;DHT22;10181;48.072;9.884;2023-11-18T03:00:15;3.70;99.90
20041;DHT22;10181;48.072;9.884;2023-11-18T03:02:48;3.70;99.90
20041;DHT22;10181;48.072;9.884;2023-11-18T03:05:14;3.80;99.90
20041;DHT22;10181;48.072;9.884;2023-11-18T03:07:45;3.80;99.90
20041;DHT22;10181;48.072;9.884;2023-11-18T03:10:23;3.80;99.90
20041;DHT22;10181;48.072;9.884;2023-11-18T03:12:50;3.70;99.90
20041;DHT22;10181;48.072;9.884;2023-11-18T03:15:24;3.70;99.90
20041;DHT22;10181;48.072;9.884;2023-11-18T03:17:51;3.80;99.90
20041;DHT22;10181;48.072;9.884;2023-11-18T03:20:18;3.70;99.90
20041;DHT22;10181;48.072;9.884;2023-11-18T03:22:48;3.80;99.90
20041;DHT22;10181;48.072;9.884;2023-11-18T03:25:15;3.80;99.90
20041;DHT22;10181;48.072;9.884;2023-11-18T03:27:42;3.90;99.90
20041;DHT22;10181;48.072;9.884;2023-11-18T03:30:08;3.90;99.90
20041;DHT22;10181;48.072;9.884;2023-11-18T03:32:35;3.90;99.90
20041;DHT22;10181;48.072;9.884;2023-11-18T03:35:05;3.90;99.90
20041;DHT22;10181;48.072;9.884;2023-11-18T03:37:40;3.90;99.90
20041;DHT22;10181;48.072;9.884;2023-11-18T03:40:12;4.00;99.90
20041;DHT22;10181;48.072;9.884;2023-11-18T03:42:39;4.00;99.90
20041;DHT22;10181;48.072;9.884;2023-11-18T03:45:05;4.00;99.90
20041;DHT22;10181;48.072;9.884;2023-11-18T03:47:40;4.00;99.90
20041;DHT22;10181;48.072;9.884;2023-11-18T03:50:09;4.00;99.90
20041;DHT22;10181;48.072;9.884;2023-11-18T03:52:36;4.00;99.90
20041;DHT22;10181;48.072;9.884;2023-11-18T03:55:03;4.00;99.90
20041;DHT22;10181;48.072;9.884;2023-11-18T03:57:30;3.90;99.90
20041;DHT22;10181;48.072;9.884;2023-11-18T03:59:55;3.90;99.90
20041;DHT22;10181;48.072;9.884;2023-11-18T04:02:21;3.90;99.90
20041;DHT22;10181;48.072;9.884;2023-11-18T04:08:06;4.00;99.90
20041;DHT22;10181;48.072;9.884;2023-11-18T04:10:51;4.00;99.90
20041;DHT22;10181;48.072;9.884;2023-11-18T04:13:36;4.00;99.90
20041;DHT22;10181;48.072;9.884;2023-11-18T04:16:05;4.00;99.90
20041;DHT22;10181;48.072;9.884;2023-11-18T04:19:00;4.00;99.90
20041;DHT22;10181;48.072;9.884;2023-11-18T04:21:26;4.00;99.90
20041;DHT22;10181;48.072;9.884;2023-11-18T04:23:55;4.00;99.90
20041;DHT22;10181;48.072;9.884;2023-11-18T04:26:23;3.90;99.90
20041;DHT22;10181;48.072;9.884;2023-11-18T04:28:53;3.90;99.90
20041;DHT22;10181;48.072;9.884;2023-11-18T04:31:25;3.90;99.90
20041;DHT22;10181;48.072;9.884;2023-11-18T04:33:51;4.00;99.90
20041;DHT22;10181;48.072;9.884;2023-11-18T04:36:27;4.10;99.90
20041;DHT22;10181;48.072;9.884;2023-11-18T04:39:03;4.10;99.90
20041;DHT22;10181;48.072;9.884;2023-11-18T04:41:38;4.00;99.90
20041;DHT22;10181;48.072;9.884;2023-11-18T04:44:12;4.00;99.90
20041;DHT22;10181;48.072;9.884;2023-11-18T04:46:39;3.90;99.90
20041;DHT22;10181;48.072;9.884;2023-11-18T04:49:05;3.90;99.90
20041;DHT22;10181;48.072;9.884;2023-11-18T04:51:31;3.90;99.90
20041;DHT22;10181;48.072;9.884;2023-11-18T04:53:58;3.90;99.90
20041;DHT22;10181;48.072;9.884;2023-11-18T04:56:23;3.90;99.90
20041;DHT22;10181;48.072;9.884;2023-11-18T04:58:49;3.90;99.90
20041;DHT22;10181;48.072;9.884;2023-11-18T05:01:15;3.90;99.90
20041;DHT22;10181;48.072;9.884;2023-11-18T05:03:41;3.90;99.90
20041;DHT22;10181;48.072;9.884;2023-11-18T05:06:07;4.00;99.90
20041;DHT22;10181;48.072;9.884;2023-11-18T05:08:33;4.00;99.90
20041;DHT22;10181;48.072;9.884;2023-11-18T05:10:59;4.00;99.90
20041;DHT22;10181;48.072;9.884;2023-11-18T05:13:24;4.00;99.90
20041;DHT22;10181;48.072;9.884;2023-11-18T05:15:52;4.00;99.90
20041;DHT22;10181;48.072;9.884;2023-11-18T05:18:19;4.10;99.90
20041;DHT22;10181;48.072;9.884;2023-11-18T05:20:47;4.00;99.90
20041;DHT22;10181;48.072;9.884;2023-11-18T05:23:15;4.10;99.90
20041;DHT22;10181;48.072;9.884;2023-11-18T05:25:42;4.10;99.90
20041;DHT22;10181;48.072;9.884;2023-11-18T05:28:10;4.10;99.90
20041;DHT22;10181;48.072;9.884;2023-11-18T05:30:37;4.10;99.90
20041;DHT22;10181;48.072;9.884;2023-11-18T05:33:03;4.00;99.90
20041;DHT22;10181;48.072;9.884;2023-11-18T05:35:34;4.00;99.90
20041;DHT22;10181;48.072;9.884;2023-11-18T05:38:00;4.00;99.90
20041;DHT22;10181;48.072;9.884;2023-11-18T05:40:28;4.00;99.90
20041;DHT22;10181;48.072;9.884;2023-11-18T05:42:54;3.90;99.90
20041;DHT22;10181;48.072;9.884;2023-11-18T05:45:20;3.80;99.90
20041;DHT22;10181;48.072;9.884;2023-11-18T05:48:09;3.80;99.90
20041;DHT22;10181;48.072;9.884;2023-11-18T05:50:35;3.90;99.90
20041;DHT22;10181;48.072;9.884;2023-11-18T05:53:00;3.80;99.90
20041;DHT22;10181;48.072;9.884;2023-11-18T05:55:26;3.70;99.90
20041;DHT22;10181;48.072;9.884;2023-11-18T05:57:51;3.70;99.90
20041;DHT22;10181;48.072;9.884;2023-11-18T06:00:17;3.70;99.90
20041;DHT22;10181;48.072;9.884;2023-11-18T06:02:45;3.70;99.90
20041;DHT22;10181;48.072;9.884;2023-11-18T06:05:10;3.60;99.90
20041;DHT22;10181;48.072;9.884;2023-11-18T06:07:38;3.60;99.90
20041;DHT22;10181;48.072;9.884;2023-11-18T06:10:06;3.60;99.90
20041;DHT22;10181;48.072;9.884;2023-11-18T06:12:32;3.60;99.90
20041;DHT22;10181;48.072;9.884;2023-11-18T06:14:58;3.60;99.90
20041;DHT22;10181;48.072;9.884;2023-11-18T06:17:24;3.60;99.90
20041;DHT22;10181;48.072;9.884;2023-11-18T06:19:50;3.60;99.90
20041;DHT22;10181;48.072;9.884;2023-11-18T06:22:15;3.60;99.90
20041;DHT22;10181;48.072;9.884;2023-11-18T06:24:41;3.50;99.90
20041;DHT22;10181;48.072;9.884;2023-11-18T06:27:07;3.50;99.90
20041;DHT22;10181;48.072;9.884;2023-11-18T06:29:34;3.50;99.90
20041;DHT22;10181;48.072;9.884;2023-11-18T06:32:00;3.40;99.90
20041;DHT22;10181;48.072;9.884;2023-11-18T06:34:26;3.40;99.90
20041;DHT22;10181;48.072;9.884;2023-11-18T06:36:53;3.30;99.90
20041;DHT22;10181;48.072;9.884;2023-11-18T06:39:18;3.30;99.90
20041;DHT22;10181;48.072;9.884;2023-11-18T06:41:45;3.30;99.90
20041;DHT22;10181;48.072;9.884;2023-11-18T06:44:16;3.40;99.90
20041;DHT22;10181;48.072;9.884;2023-11-18T06:46:48;3.30;99.90
20041;DHT22;10181;48.072;9.884;2023-11-18T06:49:16;3.40;99.90
20041;DHT22;10181;48.072;9.884;2023-11-18T06:51:42;3.10;99.90
20041;DHT22;10181;48.072;9.884;2023-11-18T06:54:08;3.20;99.90
20041;DHT22;10181;48.072;9.884;2023-11-18T06:56:36;3.20;99.90
20041;DHT22;10181;48.072;9.884;2023-11-18T06:59:07;3.20;99.90
20041;DHT22;10181;48.072;9.884;2023-11-18T07:01:33;3.20;99.90
20041;DHT22;10181;48.072;9.884;2023-11-18T07:03:59;3.30;99.90
20041;DHT22;10181;48.072;9.884;2023-11-18T07:06:25;3.30;99.90
20041;DHT22;10181;48.072;9.884;2023-11-18T07:08:53;3.30;99.90
20041;DHT22;10181;48.072;9.884;2023-11-18T07:11:19;3.30;99.90
20041;DHT22;10181;48.072;9.884;2023-11-18T07:13:48;3.20;99.90
20041;DHT22;10181;48.072;9.884;2023-11-18T07:16:15;3.20;99.90
20041;DHT22;10181;48.072;9.884;2023-11-18T07:18:41;3.20;99.90
20041;DHT22;10181;48.072;9.884;2023-11-18T07:21:10;3.30;99.90
20041;DHT22;10181;48.072;9.884;2023-11-18T07:23:36;3.30;99.90
20041;DHT22;10181;48.072;9.884;2023-11-18T07:26:02;3.40;99.90
20041;DHT22;10181;48.072;9.884;2023-11-18T07:28:29;3.40;99.90
20041;DHT22;10181;48.072;9.884;2023-11-18T07:30:56;3.40;99.90
20041;DHT22;10181;48.072;9.884;2023-11-18T07:33:23;3.50;99.90
20041;DHT22;10181;48.072;9.884;2023-11-18T07:35:49;3.50;99.90
20041;DHT22;10181;48.072;9.884;2023-11-18T07:38:15;3.50;99.90
20041;DHT22;10181;48.072;9.884;2023-11-18T07:40:41;3.50;99.90
20041;DHT22;10181;48.072;9.884;2023-11-18T07:43:20;3.50;99.90
20041;DHT22;10181;48.072;9.884;2023-11-18T07:45:47;3.60;99.90
20041;DHT22;10181;48.072;9.884;2023-11-18T07:48:16;3.70;99.90
20041;DHT22;10181;48.072;9.884;2023-11-18T07:50:43;3.60;99.90
20041;DHT22;10181;48.072;9.884;2023-11-18T07:53:13;3.60;99.90
20041;DHT22;10181;48.072;9.884;2023-11-18T07:55:38;3.60;99.90
20041;DHT22;10181;48.072;9.884;2023-11-18T07:58:08;3.60;99.90
20041;DHT22;10181;48.072;9.884;2023-11-18T08:00:41;3.70;99.90
20041;DHT22;10181;48.072;9.884;2023-11-18T08:03:08;3.70;99.90
20041;DHT22;10181;48.072;9.884;2023-11-18T08:05:41;3.70;99.90
20041;DHT22;10181;48.072;9.884;2023-11-18T08:08:10;3.70;99.90
20041;DHT22;10181;48.072;9.884;2023-11-18T08:10:37;3.70;99.90
20041;DHT22;10181;48.072;9.884;2023-11-18T08:13:06;3.70;99.90
20041;DHT22;10181;48.072;9.884;2023-11-18T08:15:33;3.80;99.90
20041;DHT22;10181;48.072;9.884;2023-11-18T08:18:00;3.90;99.90
20041;DHT22;10181;48.072;9.884;2023-11-18T08:20:25;3.90;99.90
20041;DHT22;10181;48.072;9.884;2023-11-18T08:22:51;4.00;99.90
20041;DHT22;10181;48.072;9.884;2023-11-18T08:25:18;4.00;99.90
20041;DHT22;10181;48.072;9.884;2023-11-18T08:27:44;4.00;99.90
20041;DHT22;10181;48.072;9.884;2023-11-18T08:30:13;4.20;99.90
20041;DHT22;10181;48.072;9.884;2023-11-18T08:32:41;4.20;99.90
20041;DHT22;10181;48.072;9.884;2023-11-18T08:35:09;4.20;99.90
20041;DHT22;10181;48.072;9.884;2023-11-18T08:37:36;4.20;99.90
20041;DHT22;10181;48.072;9.884;2023-11-18T08:40:06;4.20;99.90
20041;DHT22;10181;48.072;9.884;2023-11-18T08:42:50;4.30;99.90
20041;DHT22;10181;48.072;9.884;2023-11-18T08:45:16;4.30;99.90
20041;DHT22;10181;48.072;9.884;2023-11-18T08:47:46;4.20;99.90
20041;DHT22;10181;48.072;9.884;2023-11-18T08:50:18;4.30;99.90
20041;DHT22;10181;48.072;9.884;2023-11-18T08:52:46;4.40;99.90
20041;DHT22;10181;48.072;9.884;2023-11-18T08:55:13;4.50;99.90
20041;DHT22;10181;48.072;9.884;2023-11-18T08:57:50;4.50;99.90
20041;DHT22;10181;48.072;9.884;2023-11-18T09:00:39;4.50;99.90
20041;DHT22;10181;48.072;9.884;2023-11-18T09:03:15;4.50;99.90
20041;DHT22;10181;48.072;9.884;2023-11-18T09:05:54;4.60;99.90
20041;DHT22;10181;48.072;9.884;2023-11-18T09:08:24;4.60;99.90
20041;DHT22;10181;48.072;9.884;2023-11-18T09:10:50;4.60;99.90
20041;DHT22;10181;48.072;9.884;2023-11-18T09:13:22;4.70;99.90
20041;DHT22;10181;48.072;9.884;2023-11-18T09:15:50;4.70;99.90
20041;DHT22;10181;48.072;9.884;2023-11-18T09:18:16;4.80;99.90
20041;DHT22;10181;48.072;9.884;2023-11-18T09:20:43;4.80;99.90
20041;DHT22;10181;48.072;9.884;2023-11-18T09:23:09;4.80;99.90
20041;DHT22;10181;48.072;9.884;2023-11-18T09:25:34;4.80;99.90
20041;DHT22;10181;48.072;9.884;2023-11-18T09:28:01;4.90;99.90
20041;DHT22;10181;48.072;9.884;2023-11-18T09:30:35;4.90;99.90
20041;DHT22;10181;48.072;9.884;2023-11-18T09:33:04;4.90;99.90
20041;DHT22;10181;48.072;9.884;2023-11-18T09:35:40;5.00;99.90
20041;DHT22;10181;48.072;9.884;2023-11-18T09:38:06;5.10;99.90
20041;DHT22;10181;48.072;9.884;2023-11-18T09:40:32;5.10;99.90
20041;DHT22;10181;48.072;9.884;2023-11-18T09:43:03;5.10;99.90
20041;DHT22;10181;48.072;9.884;2023-11-18T09:45:34;5.10;99.90
20041;DHT22;10181;48.072;9.884;2023-11-18T09:48:02;5.20;99.90
20041;DHT22;10181;48.072;9.884;2023-11-18T09:50:33;5.30;99.90
20041;DHT22;10181;48.072;9.884;2023-11-18T09:53:00;5.20;99.90
20041;DHT22;10181;48.072;9.884;2023-11-18T09:55:42;5.30;99.90
20041;DHT22;10181;48.072;9.884;2023-11-18T09:58:13;5.40;99.90
20041;DHT22;10181;48.072;9.884;2023-11-18T10:00:41;5.40;99.90
20041;DHT22;10181;48.072;9.884;2023-11-18T10:03:09;5.50;99.90
20041;DHT22;10181;48.072;9.884;2023-11-18T10:05:41;5.60;99.90
20041;DHT22;10181;48.072;9.884;2023-11-18T10:08:07;5.60;99.90
20041;DHT22;10181;48.072;9.884;2023-11-18T10:10:33;5.70;99.90
20041;DHT22;10181;48.072;9.884;2023-11-18T10:13:03;5.90;99.90
20041;DHT22;10181;48.072;9.884;2023-11-18T10:15:34;5.90;99.90
20041;DHT22;10181;48.072;9.884;2023-11-18T10:18:02;6.00;99.90
20041;DHT22;10181;48.072;9.884;2023-11-18T10:20:48;6.10;99.90
20041;DHT22;10181;48.072;9.884;2023-11-18T10:23:18;6.00;99.90
20041;DHT22;10181;48.072;9.884;2023-11-18T10:25:48;6.00;99.90
20041;DHT22;10181;48.072;9.884;2023-11-18T10:28:24;6.00;99.90
20041;DHT22;10181;48.072;9.884;2023-11-18T10:30:50;6.10;99.90
20041;DHT22;10181;48.072;9.884;2023-11-18T10:33:17;6.10;99.90
20041;DHT22;10181;48.072;9.884;2023-11-18T10:35:52;5.90;99.90
20041;DHT22;10181;48.072;9.884;2023-11-18T10:38:21;5.90;99.90
20041;DHT22;10181;48.072;9.884;2023-11-18T10:40:53;6.00;99.90
20041;DHT22;10181;48.072;9.884;2023-11-18T10:43:18;5.90;99.90
20041;DHT22;10181;48.072;9.884;2023-11-18T10:45:45;6.00;99.90
20041;DHT22;10181;48.072;9.884;2023-11-18T10:48:12;5.90;99.90
20041;DHT22;10181;48.072;9.884;2023-11-18T10:50:42;5.90;99.90
20041;DHT22;10181;48.072;9.884;2023-11-18T10:53:10;5.90;99.90
20041;DHT22;10181;48.072;9.884;2023-11-18T10:55:38;6.00;99.90
20041;DHT22;10181;48.072;9.884;2023-11-18T10:58:08;6.10;99.90
20041;DHT22;10181;48.072;9.884;2023-11-18T11:00:50;6.10;99.90
20041;DHT22;10181;48.072;9.884;2023-11-18T11:03:17;6.10;99.90
20041;DHT22;10181;48.072;9.884;2023-11-18T11:05:44;6.30;99.90
20041;DHT22;10181;48.072;9.884;2023-11-18T11:08:14;6.40;99.90
20041;DHT22;10181;48.072;9.884;2023-11-18T11:10:40;6.30;99.90
20041;DHT22;10181;48.072;9.884;2023-11-18T11:13:09;6.40;99.90
20041;DHT22;10181;48.072;9.884;2023-11-18T11:15:42;6.40;99.90
20041;DHT22;10181;48.072;9.884;2023-11-18T11:18:19;6.50;99.90
20041;DHT22;10181;48.072;9.884;2023-11-18T11:20:57;6.50;99.90
20041;DHT22;10181;48.072;9.884;2023-11-18T11:23:45;6.60;99.90
20041;DHT22;10181;48.072;9.884;2023-11-18T11:29:32;6.50;99.90
20041;DHT22;10181;48.072;9.884;2023-11-18T11:34:26;6.60;99.90
20041;DHT22;10181;48.072;9.884;2023-11-18T11:36:56;6.50;99.90
20041;DHT22;10181;48.072;9.884;2023-11-18T11:39:24;6.50;99.90
20041;DHT22;10181;48.072;9.884;2023-11-18T11:41:56;6.40;99.90
20041;DHT22;10181;48.072;9.884;2023-11-18T11:44:22;6.50;99.90
20041;DHT22;10181;48.072;9.884;2023-11-18T11:46:57;6.50;99.90
20041;DHT22;10181;48.072;9.884;2023-11-18T11:49:26;6.60;99.90
20041;DHT22;10181;48.072;9.884;2023-11-18T11:52:02;6.50;99.90
20041;DHT22;10181;48.072;9.884;2023-11-18T11:54:35;6.50;99.90
20041;DHT22;10181;48.072;9.884;2023-11-18T11:57:04;6.50;99.90
20041;DHT22;10181;48.072;9.884;2023-11-18T12:02:15;6.50;99.90
20041;DHT22;10181;48.072;9.884;2023-11-18T12:04:59;6.50;99.90
20041;DHT22;10181;48.072;9.884;2023-11-18T12:07:31;6.50;99.90
20041;DHT22;10181;48.072;9.884;2023-11-18T12:10:07;6.50;99.90
20041;DHT22;10181;48.072;9.884;2023-11-18T12:12:34;6.50;99.90
20041;DHT22;10181;48.072;9.884;2023-11-18T12:15:00;6.50;99.90
20041;DHT22;10181;48.072;9.884;2023-11-18T12:23:13;6.50;99.90
20041;DHT22;10181;48.072;9.884;2023-11-18T12:25:46;6.50;99.90
20041;DHT22;10181;48.072;9.884;2023-11-18T12:28:15;6.50;99.90
20041;DHT22;10181;48.072;9.884;2023-11-18T12:30:43;6.60;99.90
20041;DHT22;10181;48.072;9.884;2023-11-18T12:33:20;6.60;99.90
20041;DHT22;10181;48.072;9.884;2023-11-18T12:41:38;6.60;99.90
20041;DHT22;10181;48.072;9.884;2023-11-18T12:47:02;6.50;99.90
20041;DHT22;10181;48.072;9.884;2023-11-18T12:49:44;6.50;99.90
20041;DHT22;10181;48.072;9.884;2023-11-18T12:52:15;6.50;99.90
20041;DHT22;10181;48.072;9.884;2023-11-18T12:54:44;6.50;99.90
20041;DHT22;10181;48.072;9.884;2023-11-18T12:57:14;6.40;99.90
20041;DHT22;10181;48.072;9.884;2023-11-18T12:59:40;6.40;99.90
20041;DHT22;10181;48.072;9.884;2023-11-18T13:02:08;6.40;99.90
20041;DHT22;10181;48.072;9.884;2023-11-18T13:04:39;6.40;99.90
20041;DHT22;10181;48.072;9.884;2023-11-18T13:07:11;6.40;99.90
20041;DHT22;10181;48.072;9.884;2023-11-18T13:09:39;6.40;99.90
20041;DHT22;10181;48.072;9.884;2023-11-18T13:12:08;6.40;99.90
20041;DHT22;10181;48.072;9.884;2023-11-18T13:14:35;6.40;99.90
20041;DHT22;10181;48.072;9.884;2023-11-18T13:17:09;6.40;99.90
20041;DHT22;10181;48.072;9.884;2023-11-18T13:19:37;6.40;99.90
20041;DHT22;10181;48.072;9.884;2023-11-18T13:22:04;6.40;99.90
20041;DHT22;10181;48.072;9.884;2023-11-18T13:24:36;6.40;99.90
20041;DHT22;10181;48.072;9.884;2023-11-18T13:27:05;6.40;99.90
20041;DHT22;10181;48.072;9.884;2023-11-18T13:29:35;6.40;99.90
20041;DHT22;10181;48.072;9.884;2023-11-18T13:32:02;6.40;99.90
20041;DHT22;10181;48.072;9.884;2023-11-18T13:34:33;6.40;99.90
20041;DHT22;10181;48.072;9.884;2023-11-18T13:37:01;6.40;99.90
20041;DHT22;10181;48.072;9.884;2023-11-18T13:39:27;6.40;99.90
20041;DHT22;10181;48.072;9.884;2023-11-18T13:41:53;6.50;99.90
20041;DHT22;10181;48.072;9.884;2023-11-18T13:44:34;6.50;99.90
20041;DHT22;10181;48.072;9.884;2023-11-18T13:47:00;6.50;99.90
20041;DHT22;10181;48.072;9.884;2023-11-18T13:49:33;6.60;99.90
20041;DHT22;10181;48.072;9.884;2023-11-18T13:52:02;6.60;99.90
20041;DHT22;10181;48.072;9.884;2023-11-18T13:54:28;6.70;99.90
20041;DHT22;10181;48.072;9.884;2023-11-18T13:56:58;6.70;99.90
20041;DHT22;10181;48.072;9.884;2023-11-18T13:59:25;6.60;99.90
20041;DHT22;10181;48.072;9.884;2023-11-18T14:01:55;6.70;99.90
20041;DHT22;10181;48.072;9.884;2023-11-18T14:04:27;6.60;99.90
20041;DHT22;10181;48.072;9.884;2023-11-18T14:06:56;6.60;99.90
20041;DHT22;10181;48.072;9.884;2023-11-18T14:09:22;6.50;99.90
20041;DHT22;10181;48.072;9.884;2023-11-18T14:11:51;6.50;99.90
20041;DHT22;10181;48.072;9.884;2023-11-18T14:14:17;6.40;99.90
20041;DHT22;10181;48.072;9.884;2023-11-18T14:16:43;6.40;99.90
20041;DHT22;10181;48.072;9.884;2023-11-18T14:19:09;6.50;99.90
20041;DHT22;10181;48.072;9.884;2023-11-18T14:21:36;6.40;99.90
20041;DHT22;10181;48.072;9.884;2023-11-18T14:24:02;6.40;99.90
20041;DHT22;10181;48.072;9.884;2023-11-18T14:26:28;6.40;99.90
20041;DHT22;10181;48.072;9.884;2023-11-18T14:28:56;6.30;99.90
20041;DHT22;10181;48.072;9.884;2023-11-18T14:31:22;6.20;99.90
20041;DHT22;10181;48.072;9.884;2023-11-18T14:33:48;6.20;99.90
20041;DHT22;10181;48.072;9.884;2023-11-18T14:36:13;6.10;99.90
20041;DHT22;10181;48.072;9.884;2023-11-18T14:38:40;6.10;99.90
20041;DHT22;10181;48.072;9.884;2023-11-18T14:41:06;6.00;99.90
20041;DHT22;10181;48.072;9.884;2023-11-18T14:43:33;6.00;99.90
20041;DHT22;10181;48.072;9.884;2023-11-18T14:45:59;6.00;99.90
20041;DHT22;10181;48.072;9.884;2023-11-18T14:48:25;6.00;99.90
20041;DHT22;10181;48.072;9.884;2023-11-18T14:50:51;6.00;99.90
20041;DHT22;10181;48.072;9.884;2023-11-18T14:53:16;6.00;99.90
20041;DHT22;10181;48.072;9.884;2023-11-18T14:55:42;6.00;99.90
20041;DHT22;10181;48.072;9.884;2023-11-18T14:58:08;6.00;99.90
20041;DHT22;10181;48.072;9.884;2023-11-18T15:00:37;5.90;99.90
20041;DHT22;10181;48.072;9.884;2023-11-18T15:03:03;5.90;99.90
20041;DHT22;10181;48.072;9.884;2023-11-18T15:05:28;5.90;99.90
20041;DHT22;10181;48.072;9.884;2023-11-18T15:07:55;5.80;99.90
20041;DHT22;10181;48.072;9.884;2023-11-18T15:10:25;5.80;99.90
20041;DHT22;10181;48.072;9.884;2023-11-18T15:15:23;5.80;99.90
20041;DHT22;10181;48.072;9.884;2023-11-18T15:17:57;5.80;99.90
20041;DHT22;10181;48.072;9.884;2023-11-18T15:20:24;5.80;99.90
20041;DHT22;10181;48.072;9.884;2023-11-18T15:22:49;5.70;99.90
20041;DHT22;10181;48.072;9.884;2023-11-18T15:25:15;5.70;99.90
20041;DHT22;10181;48.072;9.884;2023-11-18T15:27:43;5.70;99.90
20041;DHT22;10181;48.072;9.884;2023-11-18T15:30:14;5.70;99.90
20041;DHT22;10181;48.072;9.884;2023-11-18T15:32:44;5.70;99.90
20041;DHT22;10181;48.072;9.884;2023-11-18T15:35:11;5.70;99.90
20041;DHT22;10181;48.072;9.884;2023-11-18T15:37:39;5.70;99.90
20041;DHT22;10181;48.072;9.884;2023-11-18T15:40:07;5.60;99.90
20041;DHT22;10181;48.072;9.884;2023-11-18T15:42:40;5.60;99.90
20041;DHT22;10181;48.072;9.884;2023-11-18T15:45:13;5.60;99.90
20041;DHT22;10181;48.072;9.884;2023-11-18T15:47:40;5.60;99.90
20041;DHT22;10181;48.072;9.884;2023-11-18T15:50:09;5.60;99.90
20041;DHT22;10181;48.072;9.884;2023-11-18T15:52:38;5.60;99.90
20041;DHT22;10181;48.072;9.884;2023-11-18T15:55:05;5.60;99.90
20041;DHT22;10181;48.072;9.884;2023-11-18T15:57:39;5.50;99.90
20041;DHT22;10181;48.072;9.884;2023-11-18T16:00:06;5.40;99.90
20041;DHT22;10181;48.072;9.884;2023-11-18T16:02:41;5.50;99.90
20041;DHT22;10181;48.072;9.884;2023-11-18T16:05:08;5.50;99.90
20041;DHT22;10181;48.072;9.884;2023-11-18T16:07:34;5.50;99.90
20041;DHT22;10181;48.072;9.884;2023-11-18T16:10:00;5.40;99.90
20041;DHT22;10181;48.072;9.884;2023-11-18T16:12:26;5.40;99.90
20041;DHT22;10181;48.072;9.884;2023-11-18T16:14:55;5.40;99.90
20041;DHT22;10181;48.072;9.884;2023-11-18T16:17:22;5.40;99.90
20041;DHT22;10181;48.072;9.884;2023-11-18T16:19:48;5.40;99.90
20041;DHT22;10181;48.072;9.884;2023-11-18T16:22:13;5.40;99.90